Strona główna
METAR-TAF:

METAR-TAF

Lotnisko :

Harrisburg, Pensylwania, Stany Zjednoczone

Szerokość geograficzna: 40-13-02N, Długość geograficzna: 076-51-05W, wysokość: 106 m

Aktualna obserwacja pogody

Raport powstał 45 minut temu, godzina 23:56 UTC
Wiatr 4 kt od południowy zachód
Temperatura 4°C
Wilgotność 44%
Ciśnienie 1021 hPa
Widzialność: 16.1 km
bezchmurnie

METAR: KCXY 022356Z 22004KT 10SM CLR 04/M07 A3016 RMK AO2 SLP218 T00391072 10078 20033 51021

czas: 19:41 (00:41 UTC)


TAF: brakujący

Obserwacja i prognoza pogody dla ponad 4000 lotnisk (raport METAR i TAF).

Dostępne stacje oznaczono żółtymi i czerwonymi punktami na mapie.

Najedź kursorem aby zobaczyć nazwę stacji.

Kliknij aby zobaczyć obserwacje i prognozy pogody.

Aby zmienić mapę: kliknij na zielony przycisk z czarnym krzyżykiem, aby powiększyć; na zielony przycisk z myślnikiem, aby pomniejszyć; na zielone strzałki, aby przejść do map sąsiednich.


METAR-TAF: